Time;durP1;ratioP1;P1;durP2;ratioP2;P2;SDS_P1;SDS_P2;PMS_P1;PMS_P2;Temp;Humidity;BMP_temperature;BMP_pressure;BME280_temperature;BME280_humidity;BME280_pressure;Samples;Min_cycle;Max_cycle;Signal;HPM_P1;HPM_P2
2023/01/16 00:01:41;;;;;;;21.63;16.77;;;19.50;70.50;;;;;;5007214;28;20107;-15
2023/01/16 00:04:06;;;;;;;22.00;16.77;;;19.50;70.40;;;;;;5013997;28;20049;-15
2023/01/16 00:06:32;;;;;;;21.98;16.33;;;19.40;70.40;;;;;;5013416;28;20057;-16
2023/01/16 00:08:57;;;;;;;22.23;16.33;;;19.50;70.50;;;;;;5016505;28;20060;-14
2023/01/16 00:11:23;;;;;;;21.80;16.20;;;19.50;70.50;;;;;;5014382;28;20489;-15
2023/01/16 00:13:48;;;;;;;21.15;15.13;;;19.40;70.60;;;;;;5013672;28;20053;-16
2023/01/16 00:16:14;;;;;;;20.88;16.10;;;19.40;70.60;;;;;;5018262;28;20041;-14
2023/01/16 00:18:41;;;;;;;21.67;16.08;;;19.40;71.30;;;;;;5013256;28;20041;-20
2023/01/16 00:21:07;;;;;;;19.80;14.45;;;19.40;70.60;;;;;;5037441;28;20029;-16
2023/01/16 00:23:32;;;;;;;20.13;15.65;;;19.40;70.60;;;;;;5051215;28;20043;-19
2023/01/16 00:25:58;;;;;;;20.20;14.77;;;19.40;70.70;;;;;;5076117;28;20115;-16
2023/01/16 00:28:23;;;;;;;20.88;15.60;;;19.40;70.70;;;;;;5077105;28;20049;-17
2023/01/16 00:30:49;;;;;;;17.58;14.55;;;19.40;70.60;;;;;;5078223;28;20036;-14
2023/01/16 00:33:15;;;;;;;20.52;15.43;;;19.30;70.50;;;;;;5075516;28;20096;-14
2023/01/16 00:35:40;;;;;;;17.45;14.15;;;19.40;70.40;;;;;;5075283;28;20063;-17
2023/01/16 00:38:06;;;;;;;18.35;14.98;;;19.40;70.30;;;;;;5074217;28;20044;-16
2023/01/16 00:40:31;;;;;;;17.00;14.10;;;19.30;70.40;;;;;;5075632;28;20098;-15
2023/01/16 00:42:57;;;;;;;19.15;14.25;;;19.30;70.50;;;;;;5078434;28;20035;-15
2023/01/16 00:45:23;;;;;;;18.08;13.63;;;19.30;70.60;;;;;;5076647;28;20033;-14
2023/01/16 00:47:48;;;;;;;19.08;13.75;;;19.30;70.60;;;;;;5077030;28;20382;-18
2023/01/16 00:50:14;;;;;;;16.50;13.18;;;19.30;70.60;;;;;;5076888;28;20498;-16
2023/01/16 00:52:40;;;;;;;17.48;13.30;;;19.30;70.50;;;;;;5073263;28;20072;-15
2023/01/16 00:55:06;;;;;;;17.02;12.75;;;19.30;70.20;;;;;;5073141;28;20062;-19
2023/01/16 00:57:31;;;;;;;16.58;12.88;;;19.30;70.20;;;;;;5073502;28;20040;-14
2023/01/16 00:59:57;;;;;;;15.52;12.88;;;19.40;70.00;;;;;;5073479;28;20498;-16
2023/01/16 01:02:22;;;;;;;16.90;12.52;;;19.40;70.00;;;;;;5076217;28;20561;-14
2023/01/16 01:04:48;;;;;;;15.48;11.90;;;19.30;70.10;;;;;;5072105;28;20056;-15
2023/01/16 01:07:13;;;;;;;14.18;12.15;;;19.30;70.20;;;;;;5075038;28;20404;-14
2023/01/16 01:09:39;;;;;;;15.25;11.45;;;19.40;70.00;;;;;;5074367;28;20040;-17
2023/01/16 01:12:04;;;;;;;14.65;12.15;;;19.30;70.00;;;;;;5077086;28;20048;-16
2023/01/16 01:14:30;;;;;;;14.68;11.77;;;19.30;70.00;;;;;;5076247;28;20036;-17
2023/01/16 01:16:56;;;;;;;15.93;12.25;;;19.40;69.90;;;;;;5074377;28;20105;-15
2023/01/16 01:19:21;;;;;;;13.88;12.00;;;19.30;69.90;;;;;;5078752;28;20535;-16
2023/01/16 01:21:47;;;;;;;13.73;12.20;;;19.30;70.00;;;;;;5070354;28;20055;-16
2023/01/16 01:24:12;;;;;;;13.88;11.77;;;19.20;70.00;;;;;;5070441;28;20459;-17
2023/01/16 01:26:38;;;;;;;15.45;12.80;;;19.30;69.90;;;;;;5077256;28;20138;-17
2023/01/16 01:29:04;;;;;;;12.73;10.88;;;19.30;69.80;;;;;;5066886;28;20036;-15
2023/01/16 01:31:29;;;;;;;14.57;11.65;;;19.30;69.90;;;;;;5070949;28;20048;-15
2023/01/16 01:33:55;;;;;;;13.38;11.05;;;19.30;69.90;;;;;;5072067;28;20787;-16
2023/01/16 01:36:20;;;;;;;14.00;12.00;;;19.20;70.00;;;;;;5070512;28;20072;-15
2023/01/16 01:38:49;;;;;;;13.05;11.05;;;19.20;69.90;;;;;;5076268;28;20499;-15
2023/01/16 01:41:14;;;;;;;13.10;10.40;;;19.30;69.60;;;;;;5068108;28;20587;-15
2023/01/16 01:43:41;;;;;;;12.75;10.48;;;19.20;69.90;;;;;;5071503;28;20040;-15
2023/01/16 01:46:06;;;;;;;11.50;10.25;;;19.20;69.90;;;;;;5078095;28;20557;-14
2023/01/16 01:48:38;;;;;;;13.80;11.35;;;19.20;69.80;;;;;;5049085;28;20659;-15
2023/01/16 01:51:06;;;;;;;11.32;9.55;;;19.30;70.50;;;;;;5069473;28;20029;-15
2023/01/16 01:53:56;;;;;;;11.45;9.73;;;19.30;69.50;;;;;;5067439;28;20058;-14
2023/01/16 01:56:23;;;;;;;11.32;9.40;;;19.20;69.70;;;;;;5063863;28;20035;-14
2023/01/16 01:58:51;;;;;;;11.80;9.35;;;19.20;69.70;;;;;;5078568;28;20410;-16
2023/01/16 02:01:17;;;;;;;10.82;9.30;;;19.20;69.70;;;;;;5052938;28;20515;-15
2023/01/16 02:03:47;;;;;;;9.80;8.80;;;19.20;69.80;;;;;;5080891;28;20036;-21
2023/01/16 02:06:16;;;;;;;9.93;8.85;;;19.10;69.90;;;;;;5052801;28;20039;-15
2023/01/16 02:08:44;;;;;;;11.40;9.55;;;19.10;69.80;;;;;;5078234;28;20044;-14
2023/01/16 02:11:25;;;;;;;10.45;9.35;;;19.20;69.80;;;;;;5070848;28;20040;-16
2023/01/16 02:13:53;;;;;;;10.60;9.38;;;19.20;69.80;;;;;;5076822;28;20047;-15
2023/01/16 02:19:15;;;;;;;10.13;9.13;;;19.10;69.80;;;;;;5054819;28;20078;-17
2023/01/16 02:22:02;;;;;;;9.63;8.63;;;19.10;69.70;;;;;;5073244;28;20122;-13
2023/01/16 02:24:45;;;;;;;9.13;8.25;;;19.20;69.40;;;;;;5062774;28;20051;-14
2023/01/16 02:27:42;;;;;;;9.80;8.80;;;19.10;69.60;;;;;;5076476;28;20063;-16
2023/01/16 02:31:05;;;;;;;8.80;8.00;;;19.20;69.30;;;;;;5053332;28;20101;-16
2023/01/16 02:33:36;;;;;;;9.25;8.20;;;19.10;69.50;;;;;;5006581;28;20049;-18
2023/01/16 02:36:02;;;;;;;9.23;8.32;;;19.10;69.60;;;;;;5008965;28;20144;-17
2023/01/16 02:38:34;;;;;;;9.13;8.05;;;19.10;69.60;;;;;;5019466;28;20116;-16
2023/01/16 02:41:41;;;;;;;9.07;8.18;;;19.10;69.50;;;;;;5012372;28;20645;-13
2023/01/16 02:44:25;;;;;;;9.13;8.23;;;19.10;69.40;;;;;;4986013;28;20080;-18
2023/01/16 02:47:02;;;;;;;8.30;7.50;;;19.10;69.50;;;;;;5018219;28;20133;-15
2023/01/16 02:49:36;;;;;;;8.25;7.20;;;19.10;69.40;;;;;;5013467;28;20113;-20
2023/01/16 02:52:19;;;;;;;7.82;7.13;;;19.10;69.40;;;;;;5018127;28;20038;-17
2023/01/16 02:54:58;;;;;;;8.02;7.32;;;19.00;69.20;;;;;;4989670;28;20046;-14
2023/01/16 02:57:25;;;;;;;7.85;6.95;;;19.10;69.40;;;;;;4981655;28;20046;-14
2023/01/16 02:59:50;;;;;;;7.53;6.75;;;19.10;69.50;;;;;;4999975;28;20542;-17
2023/01/16 03:02:16;;;;;;;7.32;6.57;;;19.10;69.20;;;;;;4999164;28;20041;-19
2023/01/16 03:04:49;;;;;;;7.25;6.63;;;19.10;69.30;;;;;;5064802;28;20040;-16
2023/01/16 03:07:32;;;;;;;7.45;6.75;;;19.10;69.10;;;;;;5077341;28;20068;-15
2023/01/16 03:10:10;;;;;;;7.28;6.57;;;19.00;69.30;;;;;;5078150;28;20052;-13
2023/01/16 03:12:55;;;;;;;7.30;6.60;;;19.00;70.20;;;;;;5075091;28;20551;-16
2023/01/16 03:15:27;;;;;;;7.00;6.40;;;19.10;69.20;;;;;;5050406;28;20040;-15
2023/01/16 03:18:31;;;;;;;7.07;6.47;;;19.00;69.40;;;;;;5069870;28;20044;-15
2023/01/16 03:21:34;;;;;;;6.57;5.70;;;19.00;69.40;;;;;;4979581;28;20472;-16
2023/01/16 03:24:06;;;;;;;6.93;6.32;;;19.00;69.00;;;;;;4916106;29;20043;-15
2023/01/16 03:26:45;;;;;;;6.78;6.00;;;19.10;69.10;;;;;;4915200;29;20083;-16
2023/01/16 03:29:29;;;;;;;6.38;5.88;;;19.10;69.20;;;;;;4925599;29;20051;-16
2023/01/16 03:32:00;;;;;;;6.28;5.68;;;19.00;69.00;;;;;;4913988;29;20052;-17
2023/01/16 03:34:25;;;;;;;7.43;6.72;;;19.20;69.10;;;;;;4902906;29;20047;-17
2023/01/16 03:37:11;;;;;;;6.80;6.20;;;19.00;69.10;;;;;;4915703;29;20461;-14
2023/01/16 03:39:42;;;;;;;6.03;5.47;;;19.00;69.20;;;;;;4914114;29;20541;-16
2023/01/16 03:42:14;;;;;;;5.80;5.40;;;19.10;69.10;;;;;;4914931;29;20578;-25
2023/01/16 03:44:49;;;;;;;5.53;5.15;;;19.10;68.90;;;;;;4898412;29;20087;-16
2023/01/16 03:47:18;;;;;;;6.22;5.65;;;19.00;68.80;;;;;;4920185;29;20039;-14
2023/01/16 03:49:47;;;;;;;5.90;5.50;;;19.00;68.80;;;;;;4902701;29;20135;-16
2023/01/16 03:52:14;;;;;;;5.70;5.28;;;19.10;69.00;;;;;;4902712;29;20041;-14
2023/01/16 03:55:09;;;;;;;5.70;5.20;;;19.00;68.70;;;;;;4903115;29;20057;-14
2023/01/16 03:57:40;;;;;;;5.32;4.88;;;19.00;68.90;;;;;;5009156;28;20399;-14
2023/01/16 04:00:07;;;;;;;6.50;5.90;;;19.00;68.90;;;;;;5002990;28;20048;-14
2023/01/16 04:02:57;;;;;;;6.07;5.57;;;19.00;69.80;;;;;;5049582;28;20723;-17
2023/01/16 04:05:42;;;;;;;5.18;4.78;;;19.00;69.00;;;;;;5041015;28;20439;-24
2023/01/16 04:08:16;;;;;;;4.97;4.57;;;19.00;69.00;;;;;;5066544;28;22042;-16
2023/01/16 04:10:43;;;;;;;5.95;5.45;;;19.00;68.80;;;;;;5070669;28;20036;-16
2023/01/16 04:13:10;;;;;;;5.65;5.18;;;19.00;68.80;;;;;;5054063;28;20021;-14
2023/01/16 04:15:37;;;;;;;5.47;5.07;;;19.00;69.00;;;;;;5059009;28;20139;-14
2023/01/16 04:18:02;;;;;;;4.93;4.53;;;19.00;68.90;;;;;;5051812;28;20477;-13
2023/01/16 04:20:28;;;;;;;5.03;4.60;;;19.00;68.80;;;;;;5053274;28;20179;-14
2023/01/16 04:22:54;;;;;;;4.80;4.50;;;18.90;68.80;;;;;;5048515;28;20605;-16
2023/01/16 04:25:19;;;;;;;5.55;5.15;;;18.90;68.90;;;;;;5076954;28;20489;-16
2023/01/16 04:27:45;;;;;;;4.97;4.57;;;19.00;68.90;;;;;;5058553;28;20128;-14
2023/01/16 04:30:11;;;;;;;4.80;4.50;;;18.90;69.00;;;;;;5074034;28;20100;-16
2023/01/16 04:32:36;;;;;;;4.60;4.30;;;18.90;69.10;;;;;;5072695;28;20502;-16
2023/01/16 04:35:03;;;;;;;4.60;4.30;;;19.00;69.10;;;;;;5078036;28;20035;-16
2023/01/16 04:37:29;;;;;;;4.38;4.07;;;18.90;69.10;;;;;;5077763;28;20075;-16
2023/01/16 04:39:54;;;;;;;4.68;4.32;;;19.00;69.00;;;;;;5073171;28;20071;-14
2023/01/16 04:42:20;;;;;;;4.32;4.03;;;19.00;68.70;;;;;;5077459;28;20048;-13
2023/01/16 04:44:45;;;;;;;4.40;4.10;;;18.90;68.80;;;;;;5071448;28;20041;-16
2023/01/16 04:47:11;;;;;;;4.70;4.38;;;18.90;68.90;;;;;;5074448;28;20032;-15
2023/01/16 04:49:37;;;;;;;4.80;4.45;;;19.00;68.90;;;;;;5070677;28;20117;-14
2023/01/16 04:52:02;;;;;;;4.60;4.20;;;18.90;69.00;;;;;;5075619;28;20032;-14
2023/01/16 04:54:28;;;;;;;4.15;3.90;;;18.90;68.90;;;;;;5072396;28;20093;-13
2023/01/16 04:56:54;;;;;;;3.90;3.60;;;18.90;68.80;;;;;;5077560;28;20124;-16
2023/01/16 04:59:19;;;;;;;3.50;3.30;;;18.90;68.80;;;;;;5078252;28;20032;-14
2023/01/16 05:01:45;;;;;;;4.10;3.80;;;18.90;68.80;;;;;;5075728;28;20039;-16
2023/01/16 05:04:11;;;;;;;4.47;3.88;;;18.90;69.00;;;;;;5077994;28;20048;-17
2023/01/16 05:06:37;;;;;;;3.75;3.55;;;18.90;69.00;;;;;;5072141;28;20128;-14
2023/01/16 05:09:03;;;;;;;3.47;3.28;;;18.90;68.80;;;;;;5076540;28;20835;-17
2023/01/16 05:11:29;;;;;;;4.18;3.88;;;18.90;68.80;;;;;;5077032;28;20036;-16
2023/01/16 05:13:54;;;;;;;3.85;3.60;;;18.90;69.00;;;;;;5077521;28;20114;-20
2023/01/16 05:16:20;;;;;;;3.78;3.50;;;18.90;68.70;;;;;;5078002;28;20510;-18
2023/01/16 05:18:45;;;;;;;3.65;3.35;;;18.90;68.70;;;;;;5076270;28;20028;-15
2023/01/16 05:21:11;;;;;;;3.70;3.40;;;18.90;69.00;;;;;;5069095;28;20029;-14
2023/01/16 05:23:37;;;;;;;3.63;3.42;;;19.00;68.80;;;;;;5077594;28;20139;-16
2023/01/16 05:26:06;;;;;;;3.63;3.42;;;18.90;68.60;;;;;;5079274;28;20043;-19
2023/01/16 05:28:32;;;;;;;4.15;3.75;;;18.90;68.90;;;;;;5076507;28;20094;-22
2023/01/16 05:30:58;;;;;;;3.65;3.45;;;18.80;69.00;;;;;;5078119;28;20572;-14
2023/01/16 05:33:23;;;;;;;3.25;3.05;;;18.90;69.00;;;;;;5077973;28;20107;-15
2023/01/16 05:35:50;;;;;;;3.72;3.30;;;18.90;69.00;;;;;;5074236;28;20464;-14
2023/01/16 05:38:16;;;;;;;3.20;3.00;;;18.90;68.70;;;;;;5073054;28;20151;-14
2023/01/16 05:40:43;;;;;;;3.53;3.08;;;18.90;68.90;;;;;;5065618;28;20028;-14
2023/01/16 05:43:09;;;;;;;2.72;2.53;;;18.90;68.90;;;;;;5069738;28;20043;-17
2023/01/16 05:45:34;;;;;;;3.35;3.15;;;18.90;69.00;;;;;;5072777;28;20041;-17
2023/01/16 05:48:00;;;;;;;3.55;3.35;;;18.90;69.00;;;;;;5067919;28;20078;-15
2023/01/16 05:50:25;;;;;;;3.15;2.95;;;19.00;68.60;;;;;;5078764;28;20043;-17
2023/01/16 05:52:51;;;;;;;3.20;3.00;;;18.90;68.80;;;;;;5047077;28;20071;-22
2023/01/16 05:55:17;;;;;;;3.20;3.00;;;19.00;68.90;;;;;;5069767;28;20037;-17
2023/01/16 05:57:42;;;;;;;3.33;3.13;;;18.90;68.80;;;;;;5070378;28;20090;-17
2023/01/16 06:00:08;;;;;;;5.55;2.70;;;18.90;69.20;;;;;;5072304;28;20036;-19
2023/01/16 06:02:34;;;;;;;3.10;2.90;;;18.90;69.20;;;;;;5072950;28;20115;-15
2023/01/16 06:05:00;;;;;;;2.72;2.53;;;18.90;69.20;;;;;;5075411;28;20116;-16
2023/01/16 06:07:25;;;;;;;2.55;2.45;;;18.90;70.00;;;;;;5069610;28;20041;-15
2023/01/16 06:09:51;;;;;;;2.95;2.85;;;18.90;69.20;;;;;;5069994;28;20048;-13
2023/01/16 06:12:17;;;;;;;2.65;2.55;;;18.80;69.30;;;;;;5071082;28;20028;-16
2023/01/16 06:14:43;;;;;;;3.08;2.88;;;18.90;69.40;;;;;;5064961;28;20036;-14
2023/01/16 06:17:09;;;;;;;3.15;2.95;;;18.90;69.40;;;;;;5067768;28;20040;-14
2023/01/16 06:19:34;;;;;;;2.60;2.40;;;18.80;69.30;;;;;;5070849;28;20032;-14
2023/01/16 06:22:00;;;;;;;2.70;2.60;;;18.80;69.40;;;;;;5066798;28;20064;-14
2023/01/16 06:24:25;;;;;;;2.30;2.20;;;18.80;69.40;;;;;;5075294;28;20422;-17
2023/01/16 06:26:51;;;;;;;2.67;2.58;;;18.80;69.60;;;;;;5067848;28;20047;-16
2023/01/16 06:29:16;;;;;;;2.53;2.40;;;18.80;69.50;;;;;;5068805;28;20041;-14
2023/01/16 06:31:42;;;;;;;2.72;2.53;;;18.80;69.10;;;;;;5068488;28;20071;-16
2023/01/16 06:34:07;;;;;;;2.20;2.10;;;18.80;69.10;;;;;;5070593;28;20143;-17
2023/01/16 06:36:33;;;;;;;2.70;2.50;;;18.80;69.00;;;;;;5069813;28;20044;-14
2023/01/16 06:38:59;;;;;;;2.28;2.17;;;18.80;69.10;;;;;;5057558;28;20036;-15
2023/01/16 06:41:24;;;;;;;2.00;1.90;;;18.80;69.10;;;;;;5077371;28;20036;-15
2023/01/16 06:43:50;;;;;;;2.22;2.13;;;18.80;69.30;;;;;;5072841;28;20052;-14
2023/01/16 06:46:15;;;;;;;2.42;2.28;;;18.90;69.00;;;;;;5077501;28;20473;-16
2023/01/16 06:48:41;;;;;;;2.58;2.38;;;18.90;69.10;;;;;;5054180;28;20055;-16
2023/01/16 06:51:09;;;;;;;2.85;2.67;;;18.90;69.10;;;;;;5077648;28;20037;-15
2023/01/16 06:53:35;;;;;;;2.22;2.13;;;18.90;69.10;;;;;;5071184;28;20040;-18
2023/01/16 06:56:00;;;;;;;2.13;2.03;;;18.80;69.20;;;;;;5067737;28;20040;-15
2023/01/16 06:58:26;;;;;;;1.90;1.80;;;18.80;69.20;;;;;;5070513;28;20040;-15
2023/01/16 07:00:51;;;;;;;1.98;1.88;;;18.70;69.50;;;;;;5079283;28;20468;-16
2023/01/16 07:03:18;;;;;;;2.13;2.03;;;18.80;69.40;;;;;;5071285;28;20064;-16
2023/01/16 07:05:44;;;;;;;2.05;1.95;;;18.80;69.10;;;;;;5074442;28;20040;-14
2023/01/16 07:08:09;;;;;;;2.30;2.10;;;18.80;69.50;;;;;;5071929;28;20167;-15
2023/01/16 07:10:35;;;;;;;2.05;1.95;;;18.70;69.30;;;;;;5076289;28;20678;-15
2023/01/16 07:13:01;;;;;;;2.00;1.90;;;18.80;69.70;;;;;;5067184;28;20048;-14
2023/01/16 07:23:46;;;;;;;2.03;1.92;;;18.70;69.10;;;;;;5076190;28;20051;-14
2023/01/16 07:26:12;;;;;;;2.40;2.30;;;18.80;69.10;;;;;;5062063;28;20035;-21
2023/01/16 07:28:37;;;;;;;2.00;1.90;;;18.80;69.00;;;;;;5050398;28;20106;-14
2023/01/16 07:31:03;;;;;;;2.10;2.00;;;18.90;69.30;;;;;;5064065;28;20059;-14
2023/01/16 07:33:29;;;;;;;2.03;1.92;;;18.90;68.90;;;;;;5067361;28;20123;-14
2023/01/16 07:35:55;;;;;;;2.08;1.98;;;19.00;69.00;;;;;;5068430;28;20479;-15
2023/01/16 07:38:20;;;;;;;2.00;1.90;;;19.10;68.90;;;;;;5067735;28;20504;-17
2023/01/16 07:40:46;;;;;;;2.17;2.05;;;19.00;69.00;;;;;;5067637;28;20048;-15
2023/01/16 07:43:11;;;;;;;1.65;1.55;;;19.00;69.50;;;;;;5068144;28;20511;-14
2023/01/16 07:45:37;;;;;;;2.92;1.90;;;19.00;70.30;;;;;;5072465;28;20043;-15
2023/01/16 07:48:03;;;;;;;3.35;1.85;;;18.90;70.70;;;;;;5061564;28;20041;-14
2023/01/16 07:50:28;;;;;;;3.47;2.00;;;18.90;71.40;;;;;;5068594;28;20064;-15
2023/01/16 07:52:54;;;;;;;2.95;1.80;;;18.90;71.50;;;;;;5065953;28;20051;-14
2023/01/16 07:55:19;;;;;;;2.10;1.58;;;19.00;71.70;;;;;;5075665;28;20051;-15
2023/01/16 07:57:45;;;;;;;4.30;2.00;;;18.90;72.00;;;;;;5075413;28;20048;-13
2023/01/16 08:00:11;;;;;;;1.67;1.58;;;18.90;71.90;;;;;;5068573;28;20055;-14
2023/01/16 08:02:37;;;;;;;2.10;1.90;;;18.90;71.90;;;;;;5074735;28;20039;-15
2023/01/16 08:05:03;;;;;;;2.10;1.90;;;18.90;72.10;;;;;;5078434;28;20055;-15
2023/01/16 08:07:29;;;;;;;2.47;2.13;;;18.90;71.90;;;;;;5076704;28;20481;-15
2023/01/16 08:09:55;;;;;;;2.40;2.00;;;18.90;72.70;;;;;;5073398;28;20035;-15
2023/01/16 08:12:20;;;;;;;2.90;2.67;;;18.90;72.00;;;;;;5073188;28;20044;-15
2023/01/16 08:14:46;;;;;;;2.50;2.15;;;18.90;71.90;;;;;;5078679;28;20135;-14
2023/01/16 08:17:11;;;;;;;3.20;2.13;;;18.90;72.10;;;;;;5074540;28;20059;-18
2023/01/16 08:19:37;;;;;;;2.17;1.95;;;18.90;72.10;;;;;;5078525;28;20497;-14
2023/01/16 08:22:02;;;;;;;4.10;2.50;;;18.80;72.40;;;;;;5069990;28;20044;-17
2023/01/16 08:24:28;;;;;;;3.92;2.40;;;18.80;72.30;;;;;;5073742;28;20039;-13
2023/01/16 08:26:55;;;;;;;2.05;1.90;;;18.90;72.00;;;;;;5077725;28;20134;-13
2023/01/16 08:29:20;;;;;;;2.10;2.00;;;18.90;71.80;;;;;;5075600;28;20044;-16
2023/01/16 08:31:46;;;;;;;2.72;2.53;;;18.90;71.90;;;;;;5070333;28;20036;-14
2023/01/16 08:34:12;;;;;;;2.70;2.33;;;18.90;71.80;;;;;;5076746;28;20553;-17
2023/01/16 08:36:37;;;;;;;2.92;2.60;;;19.00;71.80;;;;;;5080283;28;20127;-15
2023/01/16 08:39:03;;;;;;;2.50;2.30;;;18.90;71.70;;;;;;5077254;28;20048;-15
2023/01/16 08:52:31;;;;;;;3.65;1.95;;;18.90;71.90;;;;;;5068498;28;20052;-15
2023/01/16 08:54:59;;;;;;;1.92;1.80;;;18.80;71.80;;;;;;5077378;28;20052;-15
2023/01/16 08:57:27;;;;;;;2.40;2.08;;;18.80;71.80;;;;;;5079138;28;20110;-16
2023/01/16 08:59:53;;;;;;;2.17;1.65;;;18.80;72.00;;;;;;5075864;28;20081;-14
2023/01/16 09:02:19;;;;;;;1.80;1.70;;;18.80;71.70;;;;;;5079489;28;20469;-14
2023/01/16 09:04:45;;;;;;;1.70;1.60;;;18.90;71.60;;;;;;5054143;28;20119;-20
2023/01/16 09:07:10;;;;;;;1.80;1.70;;;18.90;71.60;;;;;;5077346;28;20413;-16
2023/01/16 09:09:36;;;;;;;2.78;1.88;;;18.90;71.60;;;;;;5077109;28;20072;-16
2023/01/16 09:14:45;;;;;;;1.58;1.48;;;18.80;71.80;;;;;;5077579;28;20048;-14
2023/01/16 09:17:11;;;;;;;1.60;1.50;;;18.80;71.70;;;;;;5076024;28;20048;-20
2023/01/16 09:19:37;;;;;;;1.70;1.60;;;18.90;71.50;;;;;;5076545;28;20492;-14
2023/01/16 09:22:05;;;;;;;1.65;1.55;;;18.90;71.40;;;;;;5076933;28;20048;-16
2023/01/16 09:24:32;;;;;;;1.77;1.67;;;18.80;71.30;;;;;;5076470;28;20113;-16
2023/01/16 09:26:57;;;;;;;1.90;1.80;;;18.80;71.60;;;;;;5076730;28;20052;-14
2023/01/16 09:29:23;;;;;;;2.30;1.50;;;18.80;71.40;;;;;;5079198;28;20055;-15
2023/01/16 09:31:48;;;;;;;1.63;1.52;;;18.90;71.40;;;;;;5077656;28;20519;-15
2023/01/16 09:34:14;;;;;;;1.70;1.60;;;18.70;71.50;;;;;;5078596;28;20055;-14
2023/01/16 09:36:40;;;;;;;1.52;1.42;;;18.70;71.70;;;;;;5078620;28;20036;-14
2023/01/16 09:39:05;;;;;;;2.08;1.65;;;18.80;71.30;;;;;;5077930;28;20056;-14
2023/01/16 09:44:17;;;;;;;1.33;1.17;;;18.80;71.30;;;;;;5064173;28;20635;-15
2023/01/16 09:46:48;;;;;;;1.55;1.45;;;18.80;71.30;;;;;;5078442;28;20111;-14
2023/01/16 09:49:31;;;;;;;1.50;1.40;;;18.90;71.20;;;;;;5064039;28;20055;-16
2023/01/16 10:00:20;;;;;;;1.67;1.33;;;18.90;70.80;;;;;;5053068;28;20139;-14
2023/01/16 10:02:45;;;;;;;1.30;1.20;;;18.90;70.80;;;;;;5052124;28;20123;-16
2023/01/16 10:05:11;;;;;;;1.63;1.13;;;19.00;70.60;;;;;;5076736;28;20122;-24
2023/01/16 10:07:45;;;;;;;1.30;1.20;;;19.00;70.50;;;;;;5075810;28;20036;-14
2023/01/16 10:10:33;;;;;;;1.02;1.00;;;19.00;70.50;;;;;;5051620;28;20040;-14
2023/01/16 10:13:20;;;;;;;1.20;1.10;;;19.00;70.60;;;;;;5077654;28;20055;-15
2023/01/16 10:16:04;;;;;;;0.90;0.90;;;18.90;70.50;;;;;;5078842;28;20063;-15
2023/01/16 10:18:52;;;;;;;2.60;1.40;;;19.00;70.30;;;;;;5078300;28;20094;-14
2023/01/16 10:21:39;;;;;;;0.88;0.88;;;18.90;70.60;;;;;;5077380;28;20102;-18
2023/01/16 10:24:28;;;;;;;1.10;1.05;;;19.00;70.50;;;;;;5071380;28;20047;-16
2023/01/16 10:27:00;;;;;;;0.95;0.95;;;19.00;70.30;;;;;;5081292;28;20044;-15
2023/01/16 10:29:42;;;;;;;1.80;0.82;;;18.80;70.70;;;;;;5073950;28;20051;-15
2023/01/16 10:32:46;;;;;;;1.35;0.90;;;18.80;71.40;;;;;;5050790;28;20119;-16
2023/01/16 10:35:31;;;;;;;1.20;1.10;;;19.10;70.70;;;;;;5052521;28;20063;-14
2023/01/16 10:38:02;;;;;;;1.02;0.90;;;19.20;70.30;;;;;;5062948;28;20052;-16
2023/01/16 10:40:28;;;;;;;1.48;0.85;;;19.20;70.10;;;;;;5074181;28;20042;-15
2023/01/16 10:51:12;;;;;;;2.72;1.00;;;19.40;69.30;;;;;;5068332;28;20043;-15
2023/01/16 10:53:38;;;;;;;0.60;0.60;;;19.40;69.60;;;;;;5080862;28;20036;-17
2023/01/16 10:56:04;;;;;;;0.98;0.98;;;19.30;69.60;;;;;;5052991;28;20525;-15
2023/01/16 10:58:35;;;;;;;0.88;0.88;;;19.30;69.50;;;;;;5080433;28;20050;-14
2023/01/16 11:01:05;;;;;;;1.20;1.10;;;19.30;69.50;;;;;;5080572;28;20443;-16
2023/01/16 11:03:48;;;;;;;0.85;0.85;;;19.30;70.30;;;;;;5080895;28;20127;-16
2023/01/16 11:06:15;;;;;;;0.85;0.85;;;19.30;69.60;;;;;;5086812;28;20032;-16
2023/01/16 11:08:41;;;;;;;0.80;0.68;;;19.30;69.60;;;;;;5074407;28;20036;-14
2023/01/16 11:18:27;;;;;;;0.70;0.70;;;19.30;69.40;;;;;;5075818;28;20044;-14
2023/01/16 11:19:27;;;;;;;0.95;0.88;;;19.40;69.20;;;;;;5078947;28;20043;-13
2023/01/16 11:22:01;;;;;;;1.30;0.70;;;19.40;69.10;;;;;;5085283;28;20132;-15
2023/01/16 11:24:34;;;;;;;0.80;0.80;;;19.40;69.00;;;;;;5067980;28;20048;-13
2023/01/16 11:27:00;;;;;;;0.90;0.70;;;19.40;69.10;;;;;;5079605;28;20044;-14
2023/01/16 11:29:29;;;;;;;16.45;9.93;;;19.30;69.20;;;;;;5077598;28;20052;-13
2023/01/16 11:31:57;;;;;;;28.20;16.55;;;19.40;69.20;;;;;;5060453;28;20417;-14
2023/01/16 11:34:27;;;;;;;31.38;18.58;;;19.40;69.10;;;;;;5083162;28;20095;-17
2023/01/16 11:36:54;;;;;;;32.20;19.55;;;19.30;69.30;;;;;;5078146;28;20036;-16
2023/01/16 11:39:21;;;;;;;40.65;23.67;;;19.40;69.20;;;;;;5087623;28;20059;-18
2023/01/16 11:41:49;;;;;;;36.30;21.25;;;19.40;69.10;;;;;;5079629;28;20049;-16
2023/01/16 11:47:31;;;;;;;34.70;20.80;;;19.40;69.20;;;;;;5021565;28;20114;-15
2023/01/16 11:49:56;;;;;;;33.28;19.75;;;19.50;69.00;;;;;;5046236;28;20037;-15
2023/01/16 11:52:29;;;;;;;31.83;18.58;;;19.50;69.00;;;;;;5035593;28;20071;-16
2023/01/16 11:55:02;;;;;;;30.90;19.10;;;19.50;69.00;;;;;;4698840;28;9999997;-14
2023/01/16 11:57:39;;;;;;;29.75;18.20;;;19.50;69.00;;;;;;5046742;28;20067;-15
2023/01/16 12:00:34;;;;;;;29.35;18.38;;;19.40;69.30;;;;;;5050655;28;20037;-14
2023/01/16 12:03:21;;;;;;;29.17;17.45;;;19.40;69.30;;;;;;5040667;28;20060;-15
2023/01/16 12:05:57;;;;;;;25.95;15.82;;;19.40;69.30;;;;;;5054484;28;20033;-14
2023/01/16 12:08:59;;;;;;;24.17;15.60;;;19.40;70.10;;;;;;5051939;28;20053;-17
2023/01/16 12:11:33;;;;;;;22.65;14.70;;;19.40;69.30;;;;;;5036223;28;20060;-16
2023/01/16 12:14:21;;;;;;;;;;;19.40;69.30;;;;;;5059360;28;20154;-14
2023/01/16 12:16:56;;;;;;;23.35;14.10;;;19.40;69.20;;;;;;5027789;28;19940;-15
2023/01/16 12:19:28;;;;;;;22.80;13.98;;;19.50;69.10;;;;;;5052204;28;20043;-16
2023/01/16 12:22:09;;;;;;;21.38;13.98;;;19.40;69.10;;;;;;5055449;28;20090;-20
2023/01/16 12:24:43;;;;;;;18.90;12.05;;;19.40;69.00;;;;;;5020643;28;20055;-14
2023/01/16 12:27:35;;;;;;;17.38;12.85;;;19.40;69.00;;;;;;5047080;28;20036;-14
2023/01/16 12:30:27;;;;;;;20.67;12.75;;;19.50;69.00;;;;;;5031800;28;20564;-17
2023/01/16 12:32:52;;;;;;;15.77;11.48;;;19.50;69.00;;;;;;5065373;28;20059;-15
2023/01/16 12:35:30;;;;;;;18.95;12.23;;;19.50;68.90;;;;;;5054751;28;20478;-16
2023/01/16 12:38:01;;;;;;;18.52;12.15;;;19.50;68.90;;;;;;5057228;28;20045;-16
2023/01/16 12:40:35;;;;;;;14.77;11.50;;;19.50;68.80;;;;;;5057149;28;20825;-24
2023/01/16 12:43:59;;;;;;;15.23;10.38;;;19.60;68.80;;;;;;5048904;28;20120;-15
2023/01/16 12:46:32;;;;;;;14.43;10.70;;;19.60;68.80;;;;;;4919356;29;20063;-14
2023/01/16 12:49:25;;;;;;;13.63;10.57;;;19.60;68.80;;;;;;4916773;29;20143;-16
2023/01/16 12:51:53;;;;;;;14.02;9.75;;;19.60;68.70;;;;;;4932269;28;20066;-16
2023/01/16 12:54:28;;;;;;;13.93;10.15;;;19.70;68.60;;;;;;4930096;29;20027;-14
2023/01/16 12:56:56;;;;;;;15.80;10.35;;;19.70;68.60;;;;;;4931758;28;20042;-15
2023/01/16 12:59:26;;;;;;;13.60;9.82;;;19.70;68.40;;;;;;4936271;28;20055;-14
2023/01/16 13:02:15;;;;;;;11.38;8.88;;;19.70;68.20;;;;;;4933842;28;20039;-16
2023/01/16 13:05:06;;;;;;;11.82;8.82;;;19.80;68.00;;;;;;4903432;29;20043;-14
2023/01/16 13:07:36;;;;;;;11.32;8.70;;;19.70;68.10;;;;;;4937636;28;20675;-15
2023/01/16 13:13:26;;;;;;;11.05;8.07;;;19.70;68.40;;;;;;4937675;28;20094;-14
2023/01/16 13:16:05;;;;;;;11.52;8.70;;;19.70;68.40;;;;;;4941023;28;20051;-14
2023/01/16 13:18:45;;;;;;;13.27;9.00;;;19.70;68.40;;;;;;4940261;29;20512;-14
2023/01/16 13:21:19;;;;;;;11.05;8.15;;;19.70;68.20;;;;;;4977444;28;20098;-15
2023/01/16 13:23:52;;;;;;;;;;;19.70;68.20;;;;;;5010514;28;20037;-18
2023/01/16 13:26:18;;;;;;;12.32;8.05;;;19.70;68.30;;;;;;5042129;28;19962;-14
2023/01/16 13:28:50;;;;;;;11.52;8.15;;;19.80;68.30;;;;;;5041420;28;20084;-16
2023/01/16 13:31:45;;;;;;;10.10;8.00;;;19.80;68.20;;;;;;5060462;28;20033;-13
2023/01/16 13:34:25;;;;;;;10.38;8.00;;;19.80;68.20;;;;;;5027681;28;20498;-14
2023/01/16 13:36:54;;;;;;;9.32;7.18;;;19.80;68.10;;;;;;5022081;28;21943;-15
2023/01/16 13:39:53;;;;;;;9.02;7.22;;;19.80;68.20;;;;;;5060130;28;20407;-14
2023/01/16 13:42:19;;;;;;;8.55;6.78;;;19.80;68.20;;;;;;5060387;28;20037;-15
2023/01/16 13:47:34;;;;;;;8.40;6.68;;;19.80;68.50;;;;;;5060364;28;20075;-14
2023/01/16 13:50:24;;;;;;;7.22;6.25;;;19.80;68.20;;;;;;5064732;28;20057;-14
2023/01/16 13:52:49;;;;;;;7.68;5.93;;;19.80;68.20;;;;;;5060544;28;20603;-14
2023/01/16 13:55:24;;;;;;;8.18;6.50;;;19.80;69.00;;;;;;5082862;28;20527;-14
2023/01/16 13:57:49;;;;;;;7.97;5.97;;;19.80;68.10;;;;;;5066025;28;20127;-18